Burnettsville, Indiana
Current Conditions -  °F | °C
As of 9:15 AM on Thursday 23 Oct 2014 (Local Time) from KMCX Reporting Station
Haze Haze  
Wind Chill: 39°   Ceiling: Unl
Heat Index: 39°   Visibility: 3mi
Dew Point: 38°   Wind: 0mph
Humidity: 98%   Direction: NA
Pressure: 30.24"   Gusts: NA
Location:  40.76°N, 86.59°W
Report Text: KMCX 231315Z AUTO 00000KT 3SM BR CLR 04/04 A3024 RMK AO2 T00390036
Loading
Personal Weather Stations






























Interactive Weather Map
Tropical Storm Tracking
New forecast layout! Learn more

10-Day Weather Forecast

Advertisements
Track Severe Weather on mobile